CYQBCYBG

Guest
Details From CYQB - Quebec Jean Lesage Intl
To CYBG - Bagotville
Flight Number -
Tags Generated
Created
Modified
Stats Distance 94 nm / 175 km
Max Altitude 0 ft / 0 m
Waypoints 2
Social Downloads 2
Likes 0
Share VATSIM

Download

Looking for another format? Having issues loading an existing format? Contact us
Advertisement - Login to hide

Notes

Generated

Route

CYQB CYBG

ID Type Via Altitude Latitude Longitude Leg Dist Tot Dist Heading (true) Name
O CYQB APT - 0 ft / 0 m 46.78883˚ -71.40294˚ - 0 nm - -
O CYBG APT - 0 ft / 0 m 48.33750˚ -70.99639˚ 94 nm 94 nm 10° / 10° -

Altitude Profile

Advertisement - Login to hide

CYQB

Details ICAO CYQB (YQB)
Name Quebec Jean Lesage Intl
Region Canada
Timezone America/Montreal (UTC-4.0)
Stats Elevation 244 ft / 74 m (AMSL)
Location 46.789458° -71.392764°
Runways 2
Magnetic Variation 15.795° W

METAR

CYQB 240600Z 34005KT 15SM SCT110 06/03 A3003 RMK AC4 SLP173

Decode

TAF

TAF CYQB 240539Z 2406/2506 34004KT P6SM SCT120 BECMG 2407/2409 VRB03KT FM241500 20008KT P6SM SCT120 FM241700 24012G22KT P6SM BKN100 FM250200 24012KT P6SM FEW100 RMK NXT FCST BY 241200Z

Decode

Departure Runways

ID Width Length Bearing (true) Bearing (mag) Surface Threshold Offset Overrun Length
06 150 ft / 46 m 9,020 ft / 2,749 m 44.00° 59.79° Asphalt 0 ft / 0 m 0 ft / 0 m
12 150 ft / 46 m 5,678 ft / 1,731 m 97.58° 113.37° Asphalt 0 ft / 0 m 0 ft / 0 m
24 150 ft / 46 m 9,020 ft / 2,749 m 224.02° 239.81° Asphalt 0 ft / 0 m 0 ft / 0 m
30 150 ft / 46 m 5,678 ft / 1,731 m 277.60° 293.39° Asphalt 0 ft / 0 m 0 ft / 0 m

CYBG

Details ICAO CYBG (YBG)
Name BAGOTVILLE
Region Canada
Timezone America/Montreal (UTC-4.0)
Stats Elevation 522 ft / 159 m (AMSL)
Location 48.331181° -70.994165°
Runways 2
Magnetic Variation 16.507° W

METAR

CYBG 240600Z 27007KT 25SM FEW140 05/02 A3004 RMK AC2 SLP178

Decode

TAF

TAF TAF CYBG 240530Z 2406/2506 31008KT P6SM SCT140 FM241400 29008KT P6SM BKN120 FM241800 29008KT P6SM OVC060 TEMPO 2418/2506 P6SM -RA RMK NXT FCST BY 241200Z

Decode

Destination Runways

ID Width Length Bearing (true) Bearing (mag) Surface Threshold Offset Overrun Length
11 150 ft / 46 m 9,907 ft / 3,020 m 90.57° 107.08° Concrete 0 ft / 0 m 0 ft / 0 m
18 150 ft / 46 m 5,923 ft / 1,805 m 163.46° 179.97° Asphalt 0 ft / 0 m 0 ft / 0 m
29 150 ft / 46 m 9,907 ft / 3,020 m 270.60° 287.11° Concrete 0 ft / 0 m 0 ft / 0 m
36 150 ft / 46 m 5,923 ft / 1,805 m 343.46° 359.97° Asphalt 0 ft / 0 m 0 ft / 0 m

Approach Navaids

Runway Type Ident Frequency Range Bearing (true) Bearing (mag) Slope Elevation
29 Localiser IBG 111.50 MHz 25 nm / 46 km 270.98° 287.48° - 520 ft / 158 m (AMSL)
29 Glidescope IBG 111.50 MHz 25 nm / 46 km 290.00° 306.51° 3.00° 520 ft / 158 m (AMSL)

Popular Alternatives